sensor_id;sensor_type;location;lat;lon;timestamp;P1;durP1;ratioP1;P2;durP2;ratioP2
70675;SDS011;59069;52.242;20.900;2022-12-26T00:01:15;28.60;;;11.95;;
70675;SDS011;59069;52.242;20.900;2022-12-26T00:03:43;31.45;;;12.45;;
70675;SDS011;59069;52.242;20.900;2022-12-26T00:06:27;29.07;;;12.00;;
70675;SDS011;59069;52.242;20.900;2022-12-26T00:08:55;32.17;;;12.10;;
70675;SDS011;59069;52.242;20.900;2022-12-26T00:11:22;30.98;;;10.82;;
70675;SDS011;59069;52.242;20.900;2022-12-26T00:13:52;26.40;;;11.23;;
70675;SDS011;59069;52.242;20.900;2022-12-26T00:16:24;34.07;;;13.03;;
70675;SDS011;59069;52.242;20.900;2022-12-26T00:18:50;34.92;;;12.35;;
70675;SDS011;59069;52.242;20.900;2022-12-26T00:21:16;27.35;;;12.00;;
70675;SDS011;59069;52.242;20.900;2022-12-26T00:23:42;31.13;;;12.15;;
70675;SDS011;59069;52.242;20.900;2022-12-26T00:26:12;30.73;;;12.50;;
70675;SDS011;59069;52.242;20.900;2022-12-26T00:28:40;35.60;;;13.52;;
70675;SDS011;59069;52.242;20.900;2022-12-26T00:31:08;33.25;;;11.93;;
70675;SDS011;59069;52.242;20.900;2022-12-26T00:33:35;33.28;;;13.80;;
70675;SDS011;59069;52.242;20.900;2022-12-26T00:36:06;30.17;;;12.67;;
70675;SDS011;59069;52.242;20.900;2022-12-26T00:38:40;32.58;;;12.73;;
70675;SDS011;59069;52.242;20.900;2022-12-26T00:41:07;35.85;;;13.57;;
70675;SDS011;59069;52.242;20.900;2022-12-26T00:43:34;34.40;;;14.00;;
70675;SDS011;59069;52.242;20.900;2022-12-26T00:46:00;32.58;;;12.82;;
70675;SDS011;59069;52.242;20.900;2022-12-26T00:48:26;32.67;;;13.10;;
70675;SDS011;59069;52.242;20.900;2022-12-26T00:50:53;35.88;;;15.43;;
70675;SDS011;59069;52.242;20.900;2022-12-26T00:53:19;33.38;;;13.50;;
70675;SDS011;59069;52.242;20.900;2022-12-26T00:55:45;37.70;;;15.13;;
70675;SDS011;59069;52.242;20.900;2022-12-26T00:58:11;36.97;;;14.57;;
70675;SDS011;59069;52.242;20.900;2022-12-26T01:00:36;36.55;;;15.27;;
70675;SDS011;59069;52.242;20.900;2022-12-26T01:03:03;31.90;;;13.50;;
70675;SDS011;59069;52.242;20.900;2022-12-26T01:05:32;30.20;;;14.20;;
70675;SDS011;59069;52.242;20.900;2022-12-26T01:07:57;36.42;;;13.57;;
70675;SDS011;59069;52.242;20.900;2022-12-26T01:10:23;32.53;;;14.53;;
70675;SDS011;59069;52.242;20.900;2022-12-26T01:12:49;35.17;;;13.35;;
70675;SDS011;59069;52.242;20.900;2022-12-26T01:15:15;36.95;;;15.00;;
70675;SDS011;59069;52.242;20.900;2022-12-26T01:17:40;36.60;;;14.03;;
70675;SDS011;59069;52.242;20.900;2022-12-26T01:20:06;37.07;;;14.30;;
70675;SDS011;59069;52.242;20.900;2022-12-26T01:22:33;33.10;;;13.68;;
70675;SDS011;59069;52.242;20.900;2022-12-26T01:25:01;32.33;;;13.85;;
70675;SDS011;59069;52.242;20.900;2022-12-26T01:27:27;35.58;;;13.95;;
70675;SDS011;59069;52.242;20.900;2022-12-26T01:29:53;39.50;;;16.63;;
70675;SDS011;59069;52.242;20.900;2022-12-26T01:32:19;57.67;;;27.10;;
70675;SDS011;59069;52.242;20.900;2022-12-26T01:34:44;34.47;;;14.33;;
70675;SDS011;59069;52.242;20.900;2022-12-26T01:37:14;35.20;;;13.52;;
70675;SDS011;59069;52.242;20.900;2022-12-26T01:39:41;36.88;;;14.52;;
70675;SDS011;59069;52.242;20.900;2022-12-26T01:42:14;33.03;;;14.33;;
70675;SDS011;59069;52.242;20.900;2022-12-26T01:47:42;34.65;;;14.18;;
70675;SDS011;59069;52.242;20.900;2022-12-26T01:50:36;38.70;;;12.25;;
70675;SDS011;59069;52.242;20.900;2022-12-26T01:53:12;32.03;;;14.38;;
70675;SDS011;59069;52.242;20.900;2022-12-26T01:55:44;29.47;;;11.73;;
70675;SDS011;59069;52.242;20.900;2022-12-26T01:58:16;32.97;;;13.43;;
70675;SDS011;59069;52.242;20.900;2022-12-26T02:00:46;29.75;;;11.80;;
70675;SDS011;59069;52.242;20.900;2022-12-26T02:03:12;33.25;;;13.65;;
70675;SDS011;59069;52.242;20.900;2022-12-26T02:06:10;25.73;;;11.32;;
70675;SDS011;59069;52.242;20.900;2022-12-26T02:08:38;34.13;;;14.70;;
70675;SDS011;59069;52.242;20.900;2022-12-26T02:11:06;31.80;;;13.45;;
70675;SDS011;59069;52.242;20.900;2022-12-26T02:13:38;27.33;;;11.85;;
70675;SDS011;59069;52.242;20.900;2022-12-26T02:16:05;28.73;;;10.98;;
70675;SDS011;59069;52.242;20.900;2022-12-26T02:18:33;33.75;;;13.68;;
70675;SDS011;59069;52.242;20.900;2022-12-26T02:46:08;35.20;;;13.85;;
70675;SDS011;59069;52.242;20.900;2022-12-26T02:55:02;38.72;;;15.70;;
70675;SDS011;59069;52.242;20.900;2022-12-26T02:57:59;42.38;;;16.17;;
70675;SDS011;59069;52.242;20.900;2022-12-26T03:00:48;36.83;;;14.65;;
70675;SDS011;59069;52.242;20.900;2022-12-26T03:03:37;38.50;;;15.73;;
70675;SDS011;59069;52.242;20.900;2022-12-26T03:06:24;40.85;;;16.13;;
70675;SDS011;59069;52.242;20.900;2022-12-26T03:09:22;40.85;;;15.88;;
70675;SDS011;59069;52.242;20.900;2022-12-26T03:12:34;35.92;;;14.40;;
70675;SDS011;59069;52.242;20.900;2022-12-26T03:15:21;46.03;;;17.27;;
70675;SDS011;59069;52.242;20.900;2022-12-26T03:17:50;42.50;;;17.10;;
70675;SDS011;59069;52.242;20.900;2022-12-26T03:20:26;40.42;;;17.50;;
70675;SDS011;59069;52.242;20.900;2022-12-26T03:23:02;43.78;;;17.48;;
70675;SDS011;59069;52.242;20.900;2022-12-26T03:28:18;33.90;;;15.10;;
70675;SDS011;59069;52.242;20.900;2022-12-26T03:30:45;37.83;;;15.30;;
70675;SDS011;59069;52.242;20.900;2022-12-26T03:33:14;39.38;;;16.10;;
70675;SDS011;59069;52.242;20.900;2022-12-26T03:36:00;39.15;;;15.10;;
70675;SDS011;59069;52.242;20.900;2022-12-26T03:38:49;38.80;;;15.50;;
70675;SDS011;59069;52.242;20.900;2022-12-26T03:50:24;29.70;;;12.63;;
70675;SDS011;59069;52.242;20.900;2022-12-26T03:53:24;34.05;;;12.73;;
70675;SDS011;59069;52.242;20.900;2022-12-26T03:56:37;28.70;;;12.32;;
70675;SDS011;59069;52.242;20.900;2022-12-26T03:59:25;29.07;;;11.77;;
70675;SDS011;59069;52.242;20.900;2022-12-26T04:02:15;30.17;;;12.32;;
70675;SDS011;59069;52.242;20.900;2022-12-26T04:05:00;29.15;;;11.88;;
70675;SDS011;59069;52.242;20.900;2022-12-26T04:07:49;27.17;;;11.20;;
70675;SDS011;59069;52.242;20.900;2022-12-26T04:10:38;30.38;;;11.65;;
70675;SDS011;59069;52.242;20.900;2022-12-26T04:13:31;27.37;;;11.27;;
70675;SDS011;59069;52.242;20.900;2022-12-26T04:16:43;29.08;;;11.70;;
70675;SDS011;59069;52.242;20.900;2022-12-26T04:23:09;24.00;;;10.27;;
70675;SDS011;59069;52.242;20.900;2022-12-26T04:25:38;24.52;;;10.05;;
70675;SDS011;59069;52.242;20.900;2022-12-26T04:28:28;25.30;;;10.07;;
70675;SDS011;59069;52.242;20.900;2022-12-26T04:31:13;23.65;;;9.93;;
70675;SDS011;59069;52.242;20.900;2022-12-26T04:34:16;22.00;;;9.45;;
70675;SDS011;59069;52.242;20.900;2022-12-26T04:37:05;23.65;;;9.88;;
70675;SDS011;59069;52.242;20.900;2022-12-26T04:39:55;21.05;;;9.55;;
70675;SDS011;59069;52.242;20.900;2022-12-26T04:42:41;28.73;;;10.57;;
70675;SDS011;59069;52.242;20.900;2022-12-26T04:45:27;22.25;;;9.40;;
70675;SDS011;59069;52.242;20.900;2022-12-26T04:47:53;24.67;;;10.10;;
70675;SDS011;59069;52.242;20.900;2022-12-26T04:50:47;23.48;;;10.15;;
70675;SDS011;59069;52.242;20.900;2022-12-26T04:53:15;20.80;;;9.50;;
70675;SDS011;59069;52.242;20.900;2022-12-26T04:55:41;26.10;;;10.20;;
70675;SDS011;59069;52.242;20.900;2022-12-26T04:58:07;23.55;;;10.02;;
70675;SDS011;59069;52.242;20.900;2022-12-26T05:00:32;23.47;;;10.00;;
70675;SDS011;59069;52.242;20.900;2022-12-26T05:02:58;21.20;;;9.63;;
70675;SDS011;59069;52.242;20.900;2022-12-26T05:05:45;23.73;;;9.93;;
70675;SDS011;59069;52.242;20.900;2022-12-26T05:08:37;19.88;;;8.98;;
70675;SDS011;59069;52.242;20.900;2022-12-26T05:11:24;20.30;;;9.02;;
70675;SDS011;59069;52.242;20.900;2022-12-26T05:13:50;19.17;;;8.30;;
70675;SDS011;59069;52.242;20.900;2022-12-26T05:16:20;22.57;;;9.97;;
70675;SDS011;59069;52.242;20.900;2022-12-26T05:19:04;20.48;;;8.75;;
70675;SDS011;59069;52.242;20.900;2022-12-26T05:21:49;21.45;;;9.50;;
70675;SDS011;59069;52.242;20.900;2022-12-26T05:24:36;23.67;;;9.35;;
70675;SDS011;59069;52.242;20.900;2022-12-26T05:27:23;22.02;;;8.82;;
70675;SDS011;59069;52.242;20.900;2022-12-26T05:30:11;20.13;;;8.60;;
70675;SDS011;59069;52.242;20.900;2022-12-26T05:32:37;18.60;;;8.70;;
70675;SDS011;59069;52.242;20.900;2022-12-26T05:35:20;17.27;;;8.05;;
70675;SDS011;59069;52.242;20.900;2022-12-26T05:37:46;17.77;;;7.60;;
70675;SDS011;59069;52.242;20.900;2022-12-26T05:40:12;18.23;;;8.20;;
70675;SDS011;59069;52.242;20.900;2022-12-26T05:42:38;19.17;;;8.03;;
70675;SDS011;59069;52.242;20.900;2022-12-26T05:45:04;17.38;;;7.47;;
70675;SDS011;59069;52.242;20.900;2022-12-26T05:47:30;15.80;;;6.78;;
70675;SDS011;59069;52.242;20.900;2022-12-26T05:49:55;17.80;;;8.13;;
70675;SDS011;59069;52.242;20.900;2022-12-26T05:52:21;16.63;;;7.17;;
70675;SDS011;59069;52.242;20.900;2022-12-26T05:54:46;18.40;;;8.23;;
70675;SDS011;59069;52.242;20.900;2022-12-26T05:57:12;18.80;;;7.80;;
70675;SDS011;59069;52.242;20.900;2022-12-26T05:59:37;15.63;;;6.88;;
70675;SDS011;59069;52.242;20.900;2022-12-26T06:02:03;17.63;;;7.17;;
70675;SDS011;59069;52.242;20.900;2022-12-26T06:04:29;14.43;;;6.07;;
70675;SDS011;59069;52.242;20.900;2022-12-26T06:06:54;15.57;;;6.97;;
70675;SDS011;59069;52.242;20.900;2022-12-26T06:09:21;15.65;;;7.07;;
70675;SDS011;59069;52.242;20.900;2022-12-26T06:11:48;17.30;;;7.43;;
70675;SDS011;59069;52.242;20.900;2022-12-26T06:14:14;15.30;;;6.90;;
70675;SDS011;59069;52.242;20.900;2022-12-26T06:16:40;16.13;;;7.18;;
70675;SDS011;59069;52.242;20.900;2022-12-26T06:19:06;16.90;;;7.45;;
70675;SDS011;59069;52.242;20.900;2022-12-26T06:21:31;16.40;;;6.63;;
70675;SDS011;59069;52.242;20.900;2022-12-26T06:23:57;15.13;;;6.50;;
70675;SDS011;59069;52.242;20.900;2022-12-26T06:26:23;14.93;;;6.70;;
70675;SDS011;59069;52.242;20.900;2022-12-26T06:28:48;14.25;;;6.55;;
70675;SDS011;59069;52.242;20.900;2022-12-26T06:31:15;14.33;;;6.17;;
70675;SDS011;59069;52.242;20.900;2022-12-26T06:33:46;16.35;;;6.82;;
70675;SDS011;59069;52.242;20.900;2022-12-26T06:36:14;15.13;;;6.85;;
70675;SDS011;59069;52.242;20.900;2022-12-26T06:38:41;15.27;;;7.10;;
70675;SDS011;59069;52.242;20.900;2022-12-26T06:41:08;16.77;;;6.77;;
70675;SDS011;59069;52.242;20.900;2022-12-26T06:43:36;15.82;;;6.55;;
70675;SDS011;59069;52.242;20.900;2022-12-26T06:46:02;17.02;;;7.50;;
70675;SDS011;59069;52.242;20.900;2022-12-26T06:48:30;15.03;;;7.17;;
70675;SDS011;59069;52.242;20.900;2022-12-26T06:50:55;15.27;;;7.07;;
70675;SDS011;59069;52.242;20.900;2022-12-26T06:53:21;15.97;;;7.43;;
70675;SDS011;59069;52.242;20.900;2022-12-26T06:55:48;17.42;;;7.72;;
70675;SDS011;59069;52.242;20.900;2022-12-26T06:58:15;16.35;;;7.63;;
70675;SDS011;59069;52.242;20.900;2022-12-26T07:00:41;16.13;;;7.43;;
70675;SDS011;59069;52.242;20.900;2022-12-26T07:03:07;18.60;;;8.27;;
70675;SDS011;59069;52.242;20.900;2022-12-26T07:05:37;18.95;;;7.82;;
70675;SDS011;59069;52.242;20.900;2022-12-26T07:08:03;17.90;;;8.70;;
70675;SDS011;59069;52.242;20.900;2022-12-26T07:10:29;15.63;;;7.35;;
70675;SDS011;59069;52.242;20.900;2022-12-26T07:12:58;19.07;;;8.70;;
70675;SDS011;59069;52.242;20.900;2022-12-26T07:15:24;16.90;;;7.63;;
70675;SDS011;59069;52.242;20.900;2022-12-26T07:17:50;20.03;;;8.47;;
70675;SDS011;59069;52.242;20.900;2022-12-26T07:20:16;17.50;;;8.43;;
70675;SDS011;59069;52.242;20.900;2022-12-26T07:22:42;18.73;;;8.60;;
70675;SDS011;59069;52.242;20.900;2022-12-26T07:25:07;15.77;;;8.07;;
70675;SDS011;59069;52.242;20.900;2022-12-26T07:27:33;20.77;;;8.75;;
70675;SDS011;59069;52.242;20.900;2022-12-26T07:29:59;17.87;;;8.33;;
70675;SDS011;59069;52.242;20.900;2022-12-26T07:32:25;16.13;;;8.00;;
70675;SDS011;59069;52.242;20.900;2022-12-26T07:34:52;18.27;;;9.32;;
70675;SDS011;59069;52.242;20.900;2022-12-26T07:37:17;18.23;;;7.53;;
70675;SDS011;59069;52.242;20.900;2022-12-26T07:39:43;15.53;;;6.57;;
70675;SDS011;59069;52.242;20.900;2022-12-26T07:42:08;18.57;;;9.17;;
70675;SDS011;59069;52.242;20.900;2022-12-26T07:44:34;17.15;;;7.63;;
70675;SDS011;59069;52.242;20.900;2022-12-26T07:47:00;19.07;;;8.37;;
70675;SDS011;59069;52.242;20.900;2022-12-26T07:49:25;16.73;;;7.95;;
70675;SDS011;59069;52.242;20.900;2022-12-26T07:51:51;16.67;;;7.50;;
70675;SDS011;59069;52.242;20.900;2022-12-26T07:54:17;16.88;;;7.40;;
70675;SDS011;59069;52.242;20.900;2022-12-26T07:56:43;14.93;;;8.05;;
70675;SDS011;59069;52.242;20.900;2022-12-26T07:59:13;17.83;;;7.97;;
70675;SDS011;59069;52.242;20.900;2022-12-26T08:01:40;15.48;;;7.78;;
70675;SDS011;59069;52.242;20.900;2022-12-26T08:04:06;17.58;;;8.00;;
70675;SDS011;59069;52.242;20.900;2022-12-26T08:06:32;19.87;;;8.10;;
70675;SDS011;59069;52.242;20.900;2022-12-26T08:08:57;18.03;;;8.63;;
70675;SDS011;59069;52.242;20.900;2022-12-26T08:11:23;19.80;;;8.37;;
70675;SDS011;59069;52.242;20.900;2022-12-26T08:13:49;16.60;;;8.20;;
70675;SDS011;59069;52.242;20.900;2022-12-26T08:16:16;17.48;;;7.90;;
70675;SDS011;59069;52.242;20.900;2022-12-26T08:18:42;17.77;;;7.80;;
70675;SDS011;59069;52.242;20.900;2022-12-26T08:21:08;19.03;;;9.57;;
70675;SDS011;59069;52.242;20.900;2022-12-26T08:23:34;20.60;;;8.67;;
70675;SDS011;59069;52.242;20.900;2022-12-26T08:26:04;19.77;;;8.98;;
70675;SDS011;59069;52.242;20.900;2022-12-26T08:28:34;20.23;;;9.15;;
70675;SDS011;59069;52.242;20.900;2022-12-26T08:31:03;18.80;;;8.00;;
70675;SDS011;59069;52.242;20.900;2022-12-26T08:33:32;19.83;;;8.75;;
70675;SDS011;59069;52.242;20.900;2022-12-26T08:36:05;15.90;;;8.70;;
70675;SDS011;59069;52.242;20.900;2022-12-26T08:38:32;20.73;;;9.53;;
70675;SDS011;59069;52.242;20.900;2022-12-26T08:40:58;18.13;;;9.00;;
70675;SDS011;59069;52.242;20.900;2022-12-26T08:43:24;19.50;;;8.93;;
70675;SDS011;59069;52.242;20.900;2022-12-26T08:46:22;18.50;;;8.50;;
70675;SDS011;59069;52.242;20.900;2022-12-26T08:48:42;19.00;;;8.95;;
70675;SDS011;59069;52.242;20.900;2022-12-26T08:51:10;22.55;;;9.35;;
70675;SDS011;59069;52.242;20.900;2022-12-26T08:53:38;20.30;;;9.60;;
70675;SDS011;59069;52.242;20.900;2022-12-26T08:56:05;21.05;;;9.70;;
70675;SDS011;59069;52.242;20.900;2022-12-26T08:58:31;19.23;;;9.15;;
70675;SDS011;59069;52.242;20.900;2022-12-26T09:01:05;23.17;;;10.38;;
70675;SDS011;59069;52.242;20.900;2022-12-26T09:03:32;20.40;;;9.25;;
70675;SDS011;59069;52.242;20.900;2022-12-26T09:05:58;23.27;;;10.10;;
70675;SDS011;59069;52.242;20.900;2022-12-26T09:08:25;17.88;;;8.43;;
70675;SDS011;59069;52.242;20.900;2022-12-26T09:10:52;22.52;;;9.52;;
70675;SDS011;59069;52.242;20.900;2022-12-26T09:13:18;21.13;;;10.07;;
70675;SDS011;59069;52.242;20.900;2022-12-26T09:15:44;22.60;;;9.57;;
70675;SDS011;59069;52.242;20.900;2022-12-26T09:18:09;19.93;;;9.43;;
70675;SDS011;59069;52.242;20.900;2022-12-26T09:20:36;21.63;;;10.20;;
70675;SDS011;59069;52.242;20.900;2022-12-26T09:23:01;18.45;;;9.73;;
70675;SDS011;59069;52.242;20.900;2022-12-26T09:25:27;19.30;;;9.20;;
70675;SDS011;59069;52.242;20.900;2022-12-26T09:27:53;21.53;;;10.00;;
70675;SDS011;59069;52.242;20.900;2022-12-26T09:30:19;23.13;;;9.98;;
70675;SDS011;59069;52.242;20.900;2022-12-26T09:32:46;20.48;;;9.65;;
70675;SDS011;59069;52.242;20.900;2022-12-26T09:35:11;40.40;;;19.33;;
70675;SDS011;59069;52.242;20.900;2022-12-26T09:37:37;25.00;;;10.52;;
70675;SDS011;59069;52.242;20.900;2022-12-26T09:40:03;22.17;;;10.37;;
70675;SDS011;59069;52.242;20.900;2022-12-26T09:42:36;24.48;;;11.43;;
70675;SDS011;59069;52.242;20.900;2022-12-26T09:45:16;20.15;;;10.52;;
70675;SDS011;59069;52.242;20.900;2022-12-26T09:47:52;24.85;;;10.88;;
70675;SDS011;59069;52.242;20.900;2022-12-26T09:50:32;21.35;;;9.77;;
70675;SDS011;59069;52.242;20.900;2022-12-26T09:53:12;22.53;;;10.37;;
70675;SDS011;59069;52.242;20.900;2022-12-26T09:56:00;24.85;;;10.25;;
70675;SDS011;59069;52.242;20.900;2022-12-26T09:58:37;20.08;;;9.73;;
70675;SDS011;59069;52.242;20.900;2022-12-26T10:01:17;23.38;;;11.18;;
70675;SDS011;59069;52.242;20.900;2022-12-26T10:03:46;21.10;;;10.93;;
70675;SDS011;59069;52.242;20.900;2022-12-26T10:11:10;25.67;;;11.57;;
70675;SDS011;59069;52.242;20.900;2022-12-26T10:14:07;21.77;;;10.57;;
70675;SDS011;59069;52.242;20.900;2022-12-26T10:16:44;22.08;;;10.55;;
70675;SDS011;59069;52.242;20.900;2022-12-26T10:22:02;24.58;;;10.55;;
70675;SDS011;59069;52.242;20.900;2022-12-26T10:25:01;21.65;;;10.43;;
70675;SDS011;59069;52.242;20.900;2022-12-26T10:27:35;23.37;;;10.43;;
70675;SDS011;59069;52.242;20.900;2022-12-26T10:30:05;21.25;;;10.60;;
70675;SDS011;59069;52.242;20.900;2022-12-26T10:32:42;21.70;;;10.98;;
70675;SDS011;59069;52.242;20.900;2022-12-26T10:35:30;23.77;;;10.60;;
70675;SDS011;59069;52.242;20.900;2022-12-26T10:38:00;22.35;;;10.32;;
70675;SDS011;59069;52.242;20.900;2022-12-26T10:40:34;22.73;;;10.43;;
70675;SDS011;59069;52.242;20.900;2022-12-26T10:43:16;64.47;;;33.53;;
70675;SDS011;59069;52.242;20.900;2022-12-26T10:46:28;23.30;;;11.07;;
70675;SDS011;59069;52.242;20.900;2022-12-26T10:48:48;28.83;;;12.63;;
70675;SDS011;59069;52.242;20.900;2022-12-26T10:51:14;34.78;;;12.00;;
70675;SDS011;59069;52.242;20.900;2022-12-26T10:53:42;23.17;;;11.10;;
70675;SDS011;59069;52.242;20.900;2022-12-26T10:56:12;22.02;;;10.73;;
70675;SDS011;59069;52.242;20.900;2022-12-26T10:58:38;21.75;;;10.23;;
70675;SDS011;59069;52.242;20.900;2022-12-26T11:03:53;20.85;;;10.68;;
70675;SDS011;59069;52.242;20.900;2022-12-26T11:06:20;22.47;;;10.33;;
70675;SDS011;59069;52.242;20.900;2022-12-26T11:08:50;21.30;;;9.80;;
70675;SDS011;59069;52.242;20.900;2022-12-26T11:11:20;21.52;;;10.02;;
70675;SDS011;59069;52.242;20.900;2022-12-26T11:13:51;22.95;;;10.48;;
70675;SDS011;59069;52.242;20.900;2022-12-26T11:16:25;23.07;;;10.43;;
70675;SDS011;59069;52.242;20.900;2022-12-26T11:18:54;27.92;;;13.80;;
70675;SDS011;59069;52.242;20.900;2022-12-26T11:21:22;49.75;;;25.23;;
70675;SDS011;59069;52.242;20.900;2022-12-26T11:23:50;24.25;;;11.07;;
70675;SDS011;59069;52.242;20.900;2022-12-26T11:26:35;22.40;;;10.80;;
70675;SDS011;59069;52.242;20.900;2022-12-26T11:31:39;19.25;;;9.05;;
70675;SDS011;59069;52.242;20.900;2022-12-26T11:34:10;18.35;;;7.88;;
70675;SDS011;59069;52.242;20.900;2022-12-26T11:36:44;18.50;;;7.95;;
70675;SDS011;59069;52.242;20.900;2022-12-26T11:39:22;19.63;;;7.95;;
70675;SDS011;59069;52.242;20.900;2022-12-26T11:41:50;16.43;;;7.07;;
70675;SDS011;59069;52.242;20.900;2022-12-26T11:44:18;15.43;;;7.45;;
70675;SDS011;59069;52.242;20.900;2022-12-26T11:49:36;17.13;;;7.90;;
70675;SDS011;59069;52.242;20.900;2022-12-26T11:54:55;18.37;;;8.50;;
70675;SDS011;59069;52.242;20.900;2022-12-26T11:57:28;15.40;;;7.97;;
70675;SDS011;59069;52.242;20.900;2022-12-26T11:59:55;18.10;;;8.30;;
70675;SDS011;59069;52.242;20.900;2022-12-26T12:02:40;17.17;;;7.10;;
70675;SDS011;59069;52.242;20.900;2022-12-26T12:05:11;15.90;;;7.40;;
70675;SDS011;59069;52.242;20.900;2022-12-26T12:14:02;16.95;;;7.63;;
70675;SDS011;59069;52.242;20.900;2022-12-26T12:28:30;18.30;;;8.10;;
70675;SDS011;59069;52.242;20.900;2022-12-26T12:30:43;18.93;;;7.90;;
70675;SDS011;59069;52.242;20.900;2022-12-26T12:36:11;18.35;;;7.28;;
70675;SDS011;59069;52.242;20.900;2022-12-26T13:00:19;14.50;;;7.43;;
70675;SDS011;59069;52.242;20.900;2022-12-26T13:03:06;18.00;;;7.97;;
70675;SDS011;59069;52.242;20.900;2022-12-26T13:08:21;16.37;;;7.60;;
70675;SDS011;59069;52.242;20.900;2022-12-26T13:10:55;18.00;;;7.63;;
70675;SDS011;59069;52.242;20.900;2022-12-26T13:13:31;19.67;;;8.82;;
70675;SDS011;59069;52.242;20.900;2022-12-26T13:16:13;17.67;;;7.95;;
70675;SDS011;59069;52.242;20.900;2022-12-26T13:18:48;16.25;;;7.32;;
70675;SDS011;59069;52.242;20.900;2022-12-26T13:21:17;14.93;;;7.10;;
70675;SDS011;59069;52.242;20.900;2022-12-26T13:23:47;14.48;;;7.45;;
70675;SDS011;59069;52.242;20.900;2022-12-26T13:26:42;19.50;;;8.68;;
70675;SDS011;59069;52.242;20.900;2022-12-26T13:29:15;16.85;;;7.53;;
70675;SDS011;59069;52.242;20.900;2022-12-26T13:31:44;18.00;;;8.30;;
70675;SDS011;59069;52.242;20.900;2022-12-26T13:34:18;16.50;;;8.00;;
70675;SDS011;59069;52.242;20.900;2022-12-26T13:36:45;18.23;;;7.68;;
70675;SDS011;59069;52.242;20.900;2022-12-26T13:41:48;18.42;;;7.47;;
70675;SDS011;59069;52.242;20.900;2022-12-26T13:44:34;17.80;;;7.47;;
70675;SDS011;59069;52.242;20.900;2022-12-26T13:47:00;17.57;;;7.60;;
70675;SDS011;59069;52.242;20.900;2022-12-26T13:49:36;17.77;;;6.57;;
70675;SDS011;59069;52.242;20.900;2022-12-26T13:55:27;16.20;;;7.30;;
70675;SDS011;59069;52.242;20.900;2022-12-26T14:21:52;16.00;;;6.33;;
70675;SDS011;59069;52.242;20.900;2022-12-26T14:24:30;14.18;;;6.57;;
70675;SDS011;59069;52.242;20.900;2022-12-26T14:27:31;16.40;;;7.25;;
70675;SDS011;59069;52.242;20.900;2022-12-26T14:35:31;15.30;;;6.90;;
70675;SDS011;59069;52.242;20.900;2022-12-26T14:39:11;15.15;;;7.13;;
70675;SDS011;59069;52.242;20.900;2022-12-26T14:41:09;14.90;;;7.05;;
70675;SDS011;59069;52.242;20.900;2022-12-26T14:44:07;16.60;;;6.87;;
70675;SDS011;59069;52.242;20.900;2022-12-26T14:46:57;16.70;;;7.68;;
70675;SDS011;59069;52.242;20.900;2022-12-26T14:52:41;20.40;;;8.02;;
70675;SDS011;59069;52.242;20.900;2022-12-26T14:54:48;18.48;;;8.05;;
70675;SDS011;59069;52.242;20.900;2022-12-26T15:02:47;16.50;;;7.70;;
70675;SDS011;59069;52.242;20.900;2022-12-26T15:05:24;14.43;;;8.00;;
70675;SDS011;59069;52.242;20.900;2022-12-26T15:16:52;20.05;;;8.35;;
70675;SDS011;59069;52.242;20.900;2022-12-26T15:25:37;17.80;;;7.77;;
70675;SDS011;59069;52.242;20.900;2022-12-26T15:37:00;18.55;;;8.25;;
70675;SDS011;59069;52.242;20.900;2022-12-26T15:42:20;16.50;;;7.93;;
70675;SDS011;59069;52.242;20.900;2022-12-26T15:50:15;18.73;;;8.40;;
70675;SDS011;59069;52.242;20.900;2022-12-26T15:55:51;13.82;;;7.18;;
70675;SDS011;59069;52.242;20.900;2022-12-26T15:58:44;14.45;;;7.03;;
70675;SDS011;59069;52.242;20.900;2022-12-26T16:09:57;17.27;;;8.05;;
70675;SDS011;59069;52.242;20.900;2022-12-26T16:17:34;20.07;;;8.47;;
70675;SDS011;59069;52.242;20.900;2022-12-26T16:20:15;17.65;;;8.65;;
70675;SDS011;59069;52.242;20.900;2022-12-26T16:23:02;19.08;;;8.23;;
70675;SDS011;59069;52.242;20.900;2022-12-26T16:25:28;17.80;;;8.13;;
70675;SDS011;59069;52.242;20.900;2022-12-26T16:27:54;17.30;;;8.67;;
70675;SDS011;59069;52.242;20.900;2022-12-26T16:30:23;18.77;;;8.30;;
70675;SDS011;59069;52.242;20.900;2022-12-26T16:32:51;17.88;;;8.68;;
70675;SDS011;59069;52.242;20.900;2022-12-26T16:35:27;17.17;;;8.63;;
70675;SDS011;59069;52.242;20.900;2022-12-26T16:37:57;17.45;;;8.10;;
70675;SDS011;59069;52.242;20.900;2022-12-26T16:40:31;17.08;;;8.10;;
70675;SDS011;59069;52.242;20.900;2022-12-26T16:43:05;20.25;;;8.30;;
70675;SDS011;59069;52.242;20.900;2022-12-26T16:45:50;19.52;;;8.55;;
70675;SDS011;59069;52.242;20.900;2022-12-26T16:48:19;18.43;;;8.23;;
70675;SDS011;59069;52.242;20.900;2022-12-26T16:50:57;16.15;;;8.02;;
70675;SDS011;59069;52.242;20.900;2022-12-26T16:56:32;22.15;;;7.97;;
70675;SDS011;59069;52.242;20.900;2022-12-26T16:59:03;19.73;;;8.35;;
70675;SDS011;59069;52.242;20.900;2022-12-26T17:01:38;16.43;;;7.17;;
70675;SDS011;59069;52.242;20.900;2022-12-26T17:04:14;14.40;;;7.93;;
70675;SDS011;59069;52.242;20.900;2022-12-26T17:06:47;18.17;;;7.78;;
70675;SDS011;59069;52.242;20.900;2022-12-26T17:09:23;17.53;;;7.37;;
70675;SDS011;59069;52.242;20.900;2022-12-26T17:14:30;18.67;;;7.38;;
70675;SDS011;59069;52.242;20.900;2022-12-26T17:16:59;16.23;;;7.90;;
70675;SDS011;59069;52.242;20.900;2022-12-26T17:19:30;15.93;;;7.22;;
70675;SDS011;59069;52.242;20.900;2022-12-26T17:25:29;18.13;;;7.60;;
70675;SDS011;59069;52.242;20.900;2022-12-26T17:30:32;16.23;;;7.65;;
70675;SDS011;59069;52.242;20.900;2022-12-26T17:33:04;19.27;;;8.52;;
70675;SDS011;59069;52.242;20.900;2022-12-26T17:35:35;16.00;;;7.80;;
70675;SDS011;59069;52.242;20.900;2022-12-26T17:38:03;14.80;;;7.03;;
70675;SDS011;59069;52.242;20.900;2022-12-26T17:40:38;14.68;;;6.82;;
70675;SDS011;59069;52.242;20.900;2022-12-26T17:43:06;16.27;;;6.78;;
70675;SDS011;59069;52.242;20.900;2022-12-26T17:45:32;15.05;;;7.25;;
70675;SDS011;59069;52.242;20.900;2022-12-26T17:47:58;15.40;;;7.47;;
70675;SDS011;59069;52.242;20.900;2022-12-26T17:50:28;16.40;;;7.33;;
70675;SDS011;59069;52.242;20.900;2022-12-26T17:53:05;18.67;;;7.30;;
70675;SDS011;59069;52.242;20.900;2022-12-26T17:55:40;17.08;;;7.10;;
70675;SDS011;59069;52.242;20.900;2022-12-26T17:58:09;17.88;;;7.95;;
70675;SDS011;59069;52.242;20.900;2022-12-26T18:00:36;18.30;;;8.10;;
70675;SDS011;59069;52.242;20.900;2022-12-26T18:03:02;18.58;;;8.02;;
70675;SDS011;59069;52.242;20.900;2022-12-26T18:05:28;20.80;;;9.77;;
70675;SDS011;59069;52.242;20.900;2022-12-26T18:07:54;19.10;;;8.77;;
70675;SDS011;59069;52.242;20.900;2022-12-26T18:10:22;15.82;;;8.43;;
70675;SDS011;59069;52.242;20.900;2022-12-26T18:12:49;19.23;;;8.80;;
70675;SDS011;59069;52.242;20.900;2022-12-26T18:15:16;21.00;;;9.52;;
70675;SDS011;59069;52.242;20.900;2022-12-26T18:17:43;22.30;;;9.60;;
70675;SDS011;59069;52.242;20.900;2022-12-26T18:20:14;18.98;;;8.65;;
70675;SDS011;59069;52.242;20.900;2022-12-26T18:22:42;18.70;;;9.15;;
70675;SDS011;59069;52.242;20.900;2022-12-26T18:25:08;18.50;;;9.20;;